createdAt,value
2018-05-24T00:02:01.583Z,16.70
2018-05-24T00:04:29.104Z,16.80
2018-05-24T00:06:56.592Z,16.70
2018-05-24T00:09:24.121Z,16.80
2018-05-24T00:11:51.619Z,16.80
2018-05-24T00:14:19.133Z,16.80
2018-05-24T00:16:46.668Z,16.70
2018-05-24T00:19:15.521Z,16.60
2018-05-24T00:21:43.038Z,16.60
2018-05-24T00:24:11.310Z,16.50
2018-05-24T00:26:38.855Z,16.50
2018-05-24T00:29:07.159Z,16.40
2018-05-24T00:31:34.705Z,16.40
2018-05-24T00:34:03.040Z,16.30
2018-05-24T00:36:30.617Z,16.30
2018-05-24T00:38:58.130Z,16.30
2018-05-24T00:41:25.635Z,16.30
2018-05-24T00:49:02.629Z,16.30
2018-05-24T00:51:31.071Z,16.30
2018-05-24T00:53:58.535Z,16.30
2018-05-24T00:56:26.030Z,16.30
2018-05-24T00:58:54.252Z,16.30
2018-05-24T01:01:21.732Z,16.20
2018-05-24T01:03:49.246Z,16.20
2018-05-24T01:06:17.522Z,16.00
2018-05-24T01:08:46.604Z,16.00
2018-05-24T01:16:20.564Z,15.90
2018-05-24T01:18:48.824Z,15.90
2018-05-24T01:21:17.063Z,15.80
2018-05-24T01:23:44.601Z,15.80
2018-05-24T01:26:12.080Z,15.80
2018-05-24T01:28:39.577Z,15.80
2018-05-24T01:31:07.826Z,15.70
2018-05-24T01:33:35.323Z,15.70
2018-05-24T01:36:03.596Z,15.70
2018-05-24T01:38:31.837Z,15.80
2018-05-24T01:40:59.365Z,15.80
2018-05-24T01:43:26.903Z,15.80
2018-05-24T01:45:54.501Z,15.90
2018-05-24T01:48:22.034Z,16.00
2018-05-24T01:50:49.507Z,16.00
2018-05-24T01:53:16.998Z,16.00
2018-05-24T01:55:44.501Z,16.10
2018-05-24T01:58:11.984Z,16.10
2018-05-24T02:00:39.478Z,16.20
2018-05-24T02:03:06.955Z,16.30
2018-05-24T02:05:36.219Z,16.30
2018-05-24T02:08:03.734Z,16.20
2018-05-24T02:10:31.228Z,16.30
2018-05-24T02:12:58.729Z,16.30
2018-05-24T02:15:26.958Z,16.30
2018-05-24T02:17:54.464Z,16.30
2018-05-24T02:20:22.717Z,16.40
2018-05-24T02:22:51.042Z,16.40
2018-05-24T02:25:18.665Z,16.40
2018-05-24T02:27:46.930Z,16.40
2018-05-24T02:30:14.425Z,16.40
2018-05-24T02:32:41.921Z,16.40
2018-05-24T02:35:09.428Z,16.40
2018-05-24T02:37:38.299Z,16.30
2018-05-24T02:40:06.571Z,16.20
2018-05-24T02:42:34.045Z,16.10
2018-05-24T02:45:02.326Z,16.00
2018-05-24T02:47:30.578Z,15.90
2018-05-24T02:49:58.054Z,15.90
2018-05-24T02:52:26.316Z,15.90
2018-05-24T02:54:54.594Z,15.90
2018-05-24T02:57:22.853Z,15.90
2018-05-24T02:59:50.338Z,15.90
2018-05-24T03:02:18.597Z,15.90
2018-05-24T03:04:46.071Z,15.90
2018-05-24T03:07:14.358Z,16.00
2018-05-24T03:09:43.090Z,16.00
2018-05-24T03:12:10.571Z,16.00
2018-05-24T03:14:38.265Z,16.00
2018-05-24T03:17:06.548Z,16.00
2018-05-24T03:19:34.061Z,15.90
2018-05-24T03:22:01.572Z,15.90
2018-05-24T03:24:29.047Z,15.90
2018-05-24T03:26:56.532Z,15.80
2018-05-24T03:29:24.030Z,15.80
2018-05-24T03:31:51.500Z,15.70
2018-05-24T03:34:18.982Z,15.70
2018-05-24T03:36:46.469Z,15.70
2018-05-24T03:39:13.960Z,15.70
2018-05-24T03:41:41.486Z,15.70
2018-05-24T03:44:09.049Z,15.70
2018-05-24T03:46:36.583Z,15.70
2018-05-24T03:49:04.095Z,15.70
2018-05-24T03:51:31.588Z,15.70
2018-05-24T03:53:59.072Z,15.70
2018-05-24T03:56:26.638Z,15.80
2018-05-24T03:59:11.018Z,15.90
2018-05-24T04:01:51.217Z,16.10
2018-05-24T04:04:30.459Z,16.00
2018-05-24T04:06:57.928Z,16.10
2018-05-24T04:09:25.423Z,16.20
2018-05-24T04:11:53.002Z,16.20
2018-05-24T04:14:20.444Z,16.30
2018-05-24T04:16:47.945Z,16.30
2018-05-24T04:19:15.440Z,16.40
2018-05-24T04:21:43.679Z,16.40
2018-05-24T04:24:11.212Z,16.40
2018-05-24T04:26:38.693Z,16.50
2018-05-24T04:29:06.188Z,16.50
2018-05-24T04:31:34.437Z,16.50
2018-05-24T04:34:01.935Z,16.50
2018-05-24T04:36:30.203Z,16.40
2018-05-24T04:38:59.896Z,16.40
2018-05-24T04:41:27.954Z,16.40
2018-05-24T04:43:55.436Z,16.40
2018-05-24T04:46:23.707Z,16.50
2018-05-24T04:48:51.187Z,16.40
2018-05-24T04:51:19.435Z,16.50
2018-05-24T04:53:46.910Z,16.50
2018-05-24T04:56:15.175Z,16.50
2018-05-24T04:58:42.686Z,16.50
2018-05-24T05:01:10.203Z,16.60
2018-05-24T05:03:38.549Z,16.80
2018-05-24T05:06:06.037Z,16.80
2018-05-24T05:08:34.947Z,16.90
2018-05-24T05:11:02.419Z,16.90
2018-05-24T05:13:29.977Z,16.90
2018-05-24T05:15:58.185Z,17.00
2018-05-24T05:18:26.422Z,17.00
2018-05-24T05:20:53.895Z,17.00
2018-05-24T05:23:21.481Z,17.00
2018-05-24T05:25:48.895Z,17.00
2018-05-24T05:28:16.443Z,17.00
2018-05-24T05:30:43.907Z,17.00
2018-05-24T05:33:11.455Z,17.00
2018-05-24T05:35:39.057Z,17.10
2018-05-24T05:38:06.727Z,17.10
2018-05-24T05:40:34.319Z,17.20
2018-05-24T05:43:02.578Z,17.40
2018-05-24T05:45:30.803Z,17.40
2018-05-24T05:47:58.306Z,17.60
2018-05-24T05:50:25.777Z,17.90
2018-05-24T05:52:54.104Z,18.30
2018-05-24T05:55:21.597Z,18.30
2018-05-24T05:57:49.105Z,18.60
2018-05-24T06:00:16.591Z,18.80
2018-05-24T06:02:44.059Z,19.00
2018-05-24T06:05:12.315Z,19.50
2018-05-24T06:07:39.865Z,19.40
2018-05-24T06:10:07.341Z,19.70
2018-05-24T06:12:34.843Z,19.80
2018-05-24T06:15:03.116Z,19.90
2018-05-24T06:17:31.363Z,19.90
2018-05-24T06:20:00.441Z,19.70
2018-05-24T06:22:27.929Z,19.70
2018-05-24T06:24:55.425Z,19.60
2018-05-24T06:27:23.599Z,19.50
2018-05-24T06:29:51.100Z,19.50
2018-05-24T06:32:18.596Z,19.40
2018-05-24T06:34:47.507Z,19.30
2018-05-24T06:37:15.053Z,19.30
2018-05-24T06:39:42.519Z,19.30
2018-05-24T06:42:10.013Z,19.40
2018-05-24T06:44:37.501Z,19.50
2018-05-24T06:47:05.023Z,19.60
2018-05-24T06:49:32.500Z,19.80
2018-05-24T06:52:00.003Z,19.80
2018-05-24T06:54:27.562Z,19.90
2018-05-24T06:56:55.877Z,20.40
2018-05-24T06:59:23.358Z,20.40
2018-05-24T07:01:50.827Z,20.70
2018-05-24T07:04:18.338Z,21.00
2018-05-24T07:06:45.820Z,21.30
2018-05-24T07:09:13.321Z,21.20
2018-05-24T07:11:41.620Z,21.30
2018-05-24T07:14:09.132Z,21.30
2018-05-24T07:16:37.312Z,21.40
2018-05-24T07:19:04.816Z,21.60
2018-05-24T07:21:32.322Z,21.60
2018-05-24T07:23:59.807Z,21.70
2018-05-24T07:26:28.061Z,21.80
2018-05-24T07:28:55.556Z,21.80
2018-05-24T07:31:23.037Z,21.70
2018-05-24T07:33:51.144Z,21.60
2018-05-24T07:36:19.234Z,21.60
2018-05-24T07:38:47.475Z,21.60
2018-05-24T07:41:14.990Z,21.60
2018-05-24T07:43:43.322Z,21.50
2018-05-24T07:46:10.902Z,21.50
2018-05-24T07:48:39.972Z,21.20
2018-05-24T07:51:07.455Z,21.20
2018-05-24T07:53:35.731Z,20.90
2018-05-24T07:56:03.992Z,20.90
2018-05-24T07:58:31.489Z,20.90
2018-05-24T08:00:59.500Z,21.10
2018-05-24T08:03:27.565Z,21.40
2018-05-24T08:05:55.074Z,21.70
2018-05-24T08:08:23.347Z,22.20
2018-05-24T08:10:51.643Z,22.60
2018-05-24T08:13:19.169Z,22.60
2018-05-24T08:15:46.663Z,22.90
2018-05-24T08:18:14.847Z,23.10
2018-05-24T08:20:42.331Z,23.20
2018-05-24T08:23:09.816Z,23.60
2018-05-24T08:25:38.296Z,23.70
2018-05-24T08:28:06.563Z,23.80
2018-05-24T08:30:34.772Z,23.80
2018-05-24T08:33:02.266Z,23.80
2018-05-24T08:35:31.417Z,24.00
2018-05-24T08:37:58.916Z,23.90
2018-05-24T08:40:26.407Z,24.00
2018-05-24T08:42:53.912Z,24.00
2018-05-24T08:45:22.110Z,23.90
2018-05-24T08:47:49.603Z,23.90
2018-05-24T08:50:17.104Z,23.80
2018-05-24T08:52:44.623Z,23.90
2018-05-24T08:55:12.905Z,24.30
2018-05-24T08:57:41.160Z,24.50
2018-05-24T09:00:08.711Z,24.50
2018-05-24T09:02:36.207Z,24.80
2018-05-24T09:05:05.427Z,24.50
2018-05-24T09:07:32.979Z,24.50
2018-05-24T09:10:00.516Z,24.40
2018-05-24T09:12:29.591Z,24.80
2018-05-24T09:14:57.821Z,24.80
2018-05-24T09:17:25.880Z,25.00
2018-05-24T09:19:53.367Z,25.20
2018-05-24T09:22:20.878Z,25.20
2018-05-24T09:24:49.135Z,25.20
2018-05-24T09:27:16.643Z,25.20
2018-05-24T09:29:44.197Z,25.40
2018-05-24T09:32:11.773Z,25.20
2018-05-24T09:34:39.339Z,25.20
2018-05-24T09:37:06.932Z,25.10
2018-05-24T09:39:34.499Z,25.40
2018-05-24T09:42:02.772Z,25.20
2018-05-24T09:44:31.032Z,25.00
2018-05-24T09:46:58.506Z,25.00
2018-05-24T09:49:26.822Z,24.50
2018-05-24T09:51:54.306Z,24.50
2018-05-24T09:54:21.804Z,24.60
2018-05-24T09:56:50.045Z,25.00
2018-05-24T09:59:17.536Z,24.90
2018-05-24T10:01:45.775Z,25.00
2018-05-24T10:04:13.993Z,25.00
2018-05-24T10:06:42.232Z,24.90
2018-05-24T10:09:09.731Z,24.90
2018-05-24T10:11:37.236Z,24.90
2018-05-24T10:14:04.751Z,25.00
2018-05-24T10:16:33.087Z,25.50
2018-05-24T10:19:01.297Z,25.60
2018-05-24T10:21:29.560Z,25.80
2018-05-24T10:23:57.816Z,26.00
2018-05-24T10:26:26.167Z,26.20
2018-05-24T10:28:53.669Z,26.10
2018-05-24T10:31:22.692Z,26.10
2018-05-24T10:33:50.177Z,26.10
2018-05-24T10:36:18.282Z,25.90
2018-05-24T10:38:45.790Z,25.80
2018-05-24T10:41:13.269Z,25.40
2018-05-24T10:43:40.807Z,24.90
2018-05-24T10:46:08.291Z,24.50
2018-05-24T10:48:35.797Z,24.30
2018-05-24T10:51:04.247Z,23.90
2018-05-24T10:53:31.647Z,23.90
2018-05-24T10:55:59.186Z,23.90
2018-05-24T10:58:26.659Z,24.00
2018-05-24T11:00:54.147Z,24.10
2018-05-24T11:03:21.651Z,24.20
2018-05-24T11:05:49.924Z,24.80
2018-05-24T11:08:17.436Z,24.80
2018-05-24T11:10:44.927Z,25.10
2018-05-24T11:13:12.431Z,25.20
2018-05-24T11:15:40.691Z,25.50
2018-05-24T11:18:08.937Z,25.60
2018-05-24T11:20:36.453Z,25.60
2018-05-24T11:23:03.936Z,25.50
2018-05-24T11:25:31.446Z,25.50
2018-05-24T11:27:58.932Z,25.40
2018-05-24T11:30:26.418Z,25.30
2018-05-24T11:32:53.923Z,25.40
2018-05-24T11:35:22.180Z,25.50
2018-05-24T11:37:50.451Z,25.50
2018-05-24T11:40:18.699Z,25.40
2018-05-24T11:42:47.067Z,25.50
2018-05-24T11:45:14.692Z,25.50
2018-05-24T11:47:42.242Z,25.50
2018-05-24T11:50:09.755Z,25.50
2018-05-24T11:52:37.235Z,25.40
2018-05-24T11:55:05.526Z,24.90
2018-05-24T11:57:33.803Z,24.60
2018-05-24T12:00:02.075Z,24.50
2018-05-24T12:02:31.050Z,24.20
2018-05-24T12:04:58.558Z,24.20
2018-05-24T12:07:26.048Z,24.20
2018-05-24T12:09:53.669Z,24.10
2018-05-24T12:12:21.509Z,24.00
2018-05-24T12:14:49.761Z,23.80
2018-05-24T12:17:17.263Z,23.80
2018-05-24T12:19:45.312Z,23.90
2018-05-24T12:22:13.584Z,23.80
2018-05-24T12:24:41.856Z,23.70
2018-05-24T12:27:09.927Z,23.70
2018-05-24T12:29:38.186Z,23.90
2018-05-24T12:32:05.731Z,23.80
2018-05-24T12:34:33.213Z,24.10
2018-05-24T12:37:00.696Z,24.10
2018-05-24T12:39:28.180Z,24.00
2018-05-24T12:41:55.768Z,23.80
2018-05-24T12:44:23.187Z,23.90
2018-05-24T12:46:50.683Z,24.00
2018-05-24T12:49:18.824Z,23.80
2018-05-24T12:51:46.340Z,23.80
2018-05-24T12:54:14.608Z,23.70
2018-05-24T12:56:42.172Z,23.70
2018-05-24T12:59:11.057Z,23.00
2018-05-24T13:01:38.559Z,23.00
2018-05-24T13:04:06.535Z,22.70
2018-05-24T13:06:34.024Z,22.70
2018-05-24T13:09:01.549Z,22.60
2018-05-24T13:11:29.039Z,22.50
2018-05-24T13:13:56.554Z,22.40
2018-05-24T13:16:25.212Z,22.30
2018-05-24T13:18:53.536Z,22.60
2018-05-24T13:21:21.027Z,22.60
2018-05-24T13:23:49.463Z,22.60
2018-05-24T13:26:17.066Z,22.60
2018-05-24T13:28:44.648Z,22.80
2018-05-24T13:31:12.919Z,22.90
2018-05-24T13:33:41.184Z,22.80
2018-05-24T13:36:08.727Z,22.80
2018-05-24T13:38:36.209Z,22.70
2018-05-24T13:41:03.707Z,22.50
2018-05-24T13:43:31.206Z,22.50
2018-05-24T13:45:58.701Z,22.40
2018-05-24T13:48:26.969Z,22.10
2018-05-24T13:50:54.479Z,22.10
2018-05-24T13:53:21.979Z,21.90
2018-05-24T13:55:50.983Z,21.70
2018-05-24T13:58:20.126Z,21.70
2018-05-24T14:00:47.691Z,21.70
2018-05-24T14:03:15.994Z,21.50
2018-05-24T14:05:44.259Z,21.40
2018-05-24T14:08:11.784Z,21.40
2018-05-24T14:10:39.287Z,21.40
2018-05-24T14:13:06.813Z,21.40
2018-05-24T14:15:34.292Z,21.50
2018-05-24T14:18:01.807Z,21.60
2018-05-24T14:20:29.306Z,21.60
2018-05-24T14:22:56.802Z,21.70
2018-05-24T14:25:25.077Z,21.40
2018-05-24T14:27:53.385Z,21.40
2018-05-24T14:30:20.898Z,21.30
2018-05-24T14:32:49.139Z,21.30
2018-05-24T14:35:16.646Z,21.30
2018-05-24T14:37:45.053Z,21.00
2018-05-24T14:40:12.567Z,21.00
2018-05-24T14:42:40.822Z,20.90
2018-05-24T14:45:08.317Z,20.90
2018-05-24T14:47:36.569Z,20.90
2018-05-24T14:50:04.058Z,20.90
2018-05-24T14:52:32.011Z,20.90
2018-05-24T14:55:00.294Z,20.80
2018-05-24T14:57:28.683Z,20.70
2018-05-24T14:59:56.141Z,20.70
2018-05-24T15:02:23.693Z,20.70
2018-05-24T15:04:51.224Z,20.80
2018-05-24T15:07:18.844Z,20.80
2018-05-24T15:09:46.347Z,20.90
2018-05-24T15:12:13.923Z,21.00
2018-05-24T15:14:42.211Z,21.00
2018-05-24T15:17:09.695Z,21.00
2018-05-24T15:19:37.213Z,21.00
2018-05-24T15:22:05.457Z,20.90
2018-05-24T15:24:32.956Z,20.90
2018-05-24T15:27:00.452Z,20.80
2018-05-24T15:29:28.011Z,20.80
2018-05-24T15:31:55.952Z,20.70
2018-05-24T15:34:23.442Z,20.70
2018-05-24T15:36:52.434Z,20.70
2018-05-24T15:39:19.939Z,20.70
2018-05-24T15:41:48.209Z,20.70
2018-05-24T15:44:16.448Z,20.80
2018-05-24T15:46:44.737Z,20.80
2018-05-24T15:49:12.232Z,20.80
2018-05-24T15:51:40.501Z,21.10
2018-05-24T15:54:08.800Z,21.20
2018-05-24T15:56:36.873Z,21.20
2018-05-24T15:59:04.437Z,21.30
2018-05-24T16:01:31.930Z,21.30
2018-05-24T16:03:59.439Z,21.40
2018-05-24T16:06:26.938Z,21.40
2018-05-24T16:08:54.449Z,21.40
2018-05-24T16:11:21.950Z,21.50
2018-05-24T16:13:49.478Z,21.60
2018-05-24T16:16:17.004Z,21.80
2018-05-24T16:18:45.317Z,22.20
2018-05-24T16:21:12.908Z,22.20
2018-05-24T16:23:40.509Z,22.40
2018-05-24T16:26:10.254Z,22.40
2018-05-24T16:28:37.724Z,22.30
2018-05-24T16:31:05.228Z,22.40
2018-05-24T16:33:33.511Z,22.20
2018-05-24T16:36:01.787Z,22.30
2018-05-24T16:38:30.057Z,22.40
2018-05-24T16:40:58.325Z,22.30
2018-05-24T16:43:25.962Z,22.30
2018-05-24T16:45:53.565Z,22.30
2018-05-24T16:48:21.826Z,22.00
2018-05-24T16:50:49.476Z,21.90
2018-05-24T16:53:16.982Z,22.00
2018-05-24T16:55:44.486Z,22.00
2018-05-24T16:58:12.004Z,21.90
2018-05-24T17:00:39.506Z,21.90
2018-05-24T17:03:07.009Z,21.90
2018-05-24T17:05:34.520Z,21.90
2018-05-24T17:08:02.019Z,21.90
2018-05-24T17:10:29.513Z,21.90
2018-05-24T17:12:57.796Z,22.20
2018-05-24T17:15:25.293Z,22.20
2018-05-24T17:17:53.589Z,22.40
2018-05-24T17:20:21.100Z,22.40
2018-05-24T17:22:48.600Z,22.40
2018-05-24T17:25:16.082Z,22.40
2018-05-24T17:27:43.634Z,22.50
2018-05-24T17:30:11.145Z,22.50
2018-05-24T17:32:38.645Z,22.60
2018-05-24T17:35:06.163Z,22.60
2018-05-24T17:37:34.609Z,22.60
2018-05-24T17:40:02.122Z,22.50
2018-05-24T17:42:30.870Z,22.20
2018-05-24T17:44:58.372Z,22.20
2018-05-24T17:47:28.081Z,22.00
2018-05-24T17:49:56.333Z,21.80
2018-05-24T17:52:23.862Z,21.80
2018-05-24T17:54:51.349Z,21.70
2018-05-24T17:57:18.869Z,21.60
2018-05-24T17:59:47.138Z,21.40
2018-05-24T18:02:14.646Z,21.30
2018-05-24T18:04:42.165Z,21.20
2018-05-24T18:07:09.666Z,21.10
2018-05-24T18:09:37.933Z,21.00
2018-05-24T18:12:05.429Z,21.00
2018-05-24T18:14:32.951Z,21.00
2018-05-24T18:17:00.451Z,20.90
2018-05-24T18:19:27.956Z,20.90
2018-05-24T18:21:55.466Z,20.90
2018-05-24T18:24:22.990Z,20.80
2018-05-24T18:26:51.799Z,20.80
2018-05-24T18:29:20.071Z,20.70
2018-05-24T18:31:48.336Z,20.70
2018-05-24T18:34:17.257Z,20.70
2018-05-24T18:36:44.786Z,20.60
2018-05-24T18:39:13.031Z,20.60
2018-05-24T18:41:40.551Z,20.60
2018-05-24T18:44:08.072Z,20.60
2018-05-24T18:46:36.344Z,20.50
2018-05-24T18:49:03.872Z,20.50
2018-05-24T18:51:31.408Z,20.40
2018-05-24T18:53:59.720Z,20.40
2018-05-24T18:56:27.248Z,20.30
2018-05-24T18:58:54.792Z,20.30
2018-05-24T19:01:22.329Z,20.20
2018-05-24T19:03:50.622Z,20.20
2018-05-24T19:06:18.102Z,20.20
2018-05-24T19:08:45.620Z,20.10
2018-05-24T19:11:13.858Z,20.10
2018-05-24T19:13:41.819Z,20.10
2018-05-24T19:16:09.316Z,20.10
2018-05-24T19:18:37.598Z,20.10
2018-05-24T19:21:05.873Z,20.00
2018-05-24T19:23:34.154Z,20.00
2018-05-24T19:26:02.428Z,20.00
2018-05-24T19:28:31.296Z,20.00
2018-05-24T19:30:59.413Z,20.00
2018-05-24T19:33:27.470Z,20.00
2018-05-24T19:35:55.723Z,19.90
2018-05-24T19:38:24.029Z,19.80
2018-05-24T19:40:51.570Z,19.80
2018-05-24T19:43:19.871Z,19.80
2018-05-24T19:45:48.286Z,19.80
2018-05-24T19:48:16.620Z,19.80
2018-05-24T19:50:44.139Z,19.80
2018-05-24T19:53:11.659Z,19.80
2018-05-24T19:55:39.165Z,19.80
2018-05-24T19:58:06.672Z,19.80
2018-05-24T20:00:34.164Z,19.80
2018-05-24T20:03:01.708Z,19.80
2018-05-24T20:05:29.203Z,19.80
2018-05-24T20:07:56.727Z,19.80
2018-05-24T20:10:24.247Z,19.80
2018-05-24T20:12:51.785Z,19.80
2018-05-24T20:15:20.903Z,19.80
2018-05-24T20:17:48.419Z,19.80
2018-05-24T20:20:15.920Z,19.80
2018-05-24T20:22:43.432Z,19.80
2018-05-24T20:25:10.934Z,19.70
2018-05-24T20:27:39.312Z,19.60
2018-05-24T20:30:06.876Z,19.60
2018-05-24T20:32:34.382Z,19.60
2018-05-24T20:35:01.896Z,19.50
2018-05-24T20:37:29.391Z,19.50
2018-05-24T20:39:57.830Z,19.40
2018-05-24T20:42:25.338Z,19.30
2018-05-24T20:44:52.932Z,19.20
2018-05-24T20:47:21.204Z,19.00
2018-05-24T20:49:49.460Z,19.00
2018-05-24T20:52:16.940Z,18.90
2018-05-24T20:54:45.313Z,18.90
2018-05-24T20:57:13.592Z,18.90
2018-05-24T20:59:41.856Z,18.80
2018-05-24T21:02:10.148Z,18.80
2018-05-24T21:04:39.371Z,18.80
2018-05-24T21:07:06.858Z,18.70
2018-05-24T21:09:34.364Z,18.70
2018-05-24T21:12:02.649Z,18.60
2018-05-24T21:14:30.150Z,18.60
2018-05-24T21:16:57.645Z,18.50
2018-05-24T21:19:25.899Z,18.40
2018-05-24T21:21:53.467Z,18.40
2018-05-24T21:24:20.967Z,18.30
2018-05-24T21:26:48.475Z,18.30
2018-05-24T21:29:15.973Z,18.20
2018-05-24T21:31:43.488Z,18.10
2018-05-24T21:34:10.991Z,18.10
2018-05-24T21:36:38.516Z,18.10
2018-05-24T21:39:06.029Z,18.10
2018-05-24T21:41:34.419Z,18.10
2018-05-24T21:44:01.976Z,18.10
2018-05-24T21:46:30.305Z,18.00
2018-05-24T21:48:58.582Z,18.00
2018-05-24T21:51:26.843Z,18.00
2018-05-24T21:53:55.128Z,17.90
2018-05-24T21:56:23.393Z,17.90
2018-05-24T21:58:51.662Z,17.90
2018-05-24T22:01:19.166Z,17.90
2018-05-24T22:03:47.156Z,17.90
2018-05-24T22:06:14.631Z,17.80
2018-05-24T22:08:42.112Z,17.90
2018-05-24T22:11:10.426Z,17.90
2018-05-24T22:13:37.915Z,17.90
2018-05-24T22:16:05.424Z,17.80
2018-05-24T22:18:33.684Z,17.90
2018-05-24T22:21:01.953Z,17.90
2018-05-24T22:23:30.178Z,17.90
2018-05-24T22:25:57.739Z,17.90
2018-05-24T22:28:25.233Z,17.90
2018-05-24T22:30:52.724Z,17.80
2018-05-24T22:33:20.210Z,17.80
2018-05-24T22:35:47.711Z,17.80
2018-05-24T22:38:16.076Z,17.80
2018-05-24T22:40:43.604Z,17.70
2018-05-24T22:43:11.099Z,17.70
2018-05-24T22:45:38.585Z,17.70
2018-05-24T22:48:06.841Z,17.60
2018-05-24T22:50:34.411Z,17.60
2018-05-24T22:53:02.660Z,17.60
2018-05-24T22:55:30.179Z,17.50
2018-05-24T22:57:57.649Z,17.50
2018-05-24T23:00:25.176Z,17.40
2018-05-24T23:02:53.422Z,17.40
2018-05-24T23:05:20.936Z,17.30
2018-05-24T23:07:48.441Z,17.30
2018-05-24T23:10:15.939Z,17.30
2018-05-24T23:12:43.458Z,17.30
2018-05-24T23:15:10.992Z,17.30
2018-05-24T23:17:38.517Z,17.30
2018-05-24T23:20:06.019Z,17.30
2018-05-24T23:22:38.620Z,17.40
2018-05-24T23:25:07.479Z,17.40
2018-05-24T23:27:34.973Z,17.40
2018-05-24T23:30:03.233Z,17.50
2018-05-24T23:32:31.335Z,17.50
2018-05-24T23:34:58.846Z,17.40
2018-05-24T23:37:26.359Z,17.40
2018-05-24T23:39:53.885Z,17.40
2018-05-24T23:42:22.160Z,17.30
2018-05-24T23:44:49.643Z,17.30
2018-05-24T23:47:17.185Z,17.30
2018-05-24T23:49:45.437Z,17.30
2018-05-24T23:52:12.934Z,17.30
2018-05-24T23:54:40.443Z,17.40
2018-05-24T23:57:07.920Z,17.30
2018-05-24T23:59:35.433Z,17.30
